createdAt,value
2018-09-25T00:00:39.017Z,49.395752
2018-09-25T00:01:39.104Z,49.902344
2018-09-25T00:02:39.261Z,49.804688
2018-09-25T00:03:39.372Z,49.902344
2018-09-25T00:04:39.505Z,49.926758
2018-09-25T00:05:39.622Z,50.030518
2018-09-25T00:06:39.654Z,49.902344
2018-09-25T00:07:39.792Z,49.902344
2018-09-25T00:08:40.935Z,49.804688
2018-09-25T00:09:40.039Z,50.006104
2018-09-25T00:10:40.100Z,50.20752
2018-09-25T00:11:40.193Z,50.030518
2018-09-25T00:12:40.272Z,50.231934
2018-09-25T00:13:40.311Z,50.537109
2018-09-25T00:14:40.413Z,50.769043
2018-09-25T00:15:40.444Z,50.866699
2018-09-25T00:16:40.379Z,50.866699
2018-09-25T00:17:40.473Z,50.842285
2018-09-25T00:18:40.622Z,50.640869
2018-09-25T00:19:40.713Z,50.537109
2018-09-25T00:20:40.852Z,50.842285
2018-09-25T00:21:40.931Z,50.744629
2018-09-25T00:22:41.013Z,50.970459
2018-09-25T00:23:41.045Z,50.946045
2018-09-25T00:24:41.133Z,50.842285
2018-09-25T00:25:41.269Z,50.842285
2018-09-25T00:26:41.263Z,50.640869
2018-09-25T00:27:41.254Z,50.842285
2018-09-25T00:28:41.423Z,50.970459
2018-09-25T00:29:41.506Z,51.074219
2018-09-25T00:30:41.632Z,51.275635
2018-09-25T00:31:41.524Z,51.074219
2018-09-25T00:32:41.572Z,51.171875
2018-09-25T00:33:41.589Z,51.580811
2018-09-25T00:34:41.712Z,51.379395
2018-09-25T00:35:41.920Z,51.275635
2018-09-25T00:36:41.905Z,51.379395
2018-09-25T00:37:42.004Z,51.68457
2018-09-25T00:38:42.159Z,51.580811
2018-09-25T00:39:42.129Z,51.68457
2018-09-25T00:40:42.222Z,51.885986
2018-09-25T00:41:42.398Z,51.9104
2018-09-25T00:42:42.369Z,52.01416
2018-09-25T00:43:42.597Z,52.11792
2018-09-25T00:44:42.536Z,51.78833
2018-09-25T00:45:42.608Z,51.78833
2018-09-25T00:46:42.660Z,51.68457
2018-09-25T00:47:42.916Z,51.885986
2018-09-25T00:48:42.811Z,51.885986
2018-09-25T00:49:42.893Z,51.9104
2018-09-25T00:50:43.058Z,51.812744
2018-09-25T00:51:43.049Z,51.812744
2018-09-25T00:52:43.029Z,51.580811
2018-09-25T00:53:43.093Z,51.812744
2018-09-25T00:54:43.388Z,51.812744
2018-09-25T00:55:43.221Z,52.01416
2018-09-25T00:56:43.326Z,51.9104
2018-09-25T00:57:43.437Z,52.11792
2018-09-25T00:58:43.557Z,52.01416
2018-09-25T00:59:43.579Z,51.9104
2018-09-25T01:00:43.640Z,52.01416
2018-09-25T01:01:43.825Z,52.11792
2018-09-25T01:02:43.767Z,52.34375
2018-09-25T01:03:43.759Z,52.319336
2018-09-25T01:04:43.911Z,52.319336
2018-09-25T01:05:44.155Z,52.11792
2018-09-25T01:06:43.959Z,52.01416
2018-09-25T01:07:44.007Z,52.34375
2018-09-25T01:08:44.127Z,52.44751
2018-09-25T01:09:44.210Z,52.22168
2018-09-25T01:10:44.310Z,52.01416
2018-09-25T01:11:45.368Z,52.22168
2018-09-25T01:12:44.468Z,52.55127
2018-09-25T01:13:44.573Z,52.55127
2018-09-25T01:14:44.769Z,52.648926
2018-09-25T01:15:44.668Z,52.44751
2018-09-25T01:16:44.782Z,52.22168
2018-09-25T01:17:44.889Z,52.44751
2018-09-25T01:18:45.178Z,52.55127
2018-09-25T01:19:45.112Z,52.752686
2018-09-25T01:20:45.294Z,52.752686
2018-09-25T01:21:45.289Z,52.856445
2018-09-25T01:22:45.360Z,52.752686
2018-09-25T01:23:45.368Z,52.960205
2018-09-25T01:24:45.476Z,52.752686
2018-09-25T01:25:45.678Z,52.752686
2018-09-25T01:26:45.666Z,52.856445
2018-09-25T01:27:45.795Z,52.55127
2018-09-25T01:28:45.903Z,52.67334
2018-09-25T01:29:46.029Z,53.082275
2018-09-25T01:30:46.119Z,53.082275
2018-09-25T01:31:46.167Z,52.880859
2018-09-25T01:32:46.232Z,52.648926
2018-09-25T01:33:46.443Z,52.7771
2018-09-25T01:34:46.367Z,52.880859
2018-09-25T01:35:46.468Z,52.880859
2018-09-25T01:36:46.568Z,52.880859
2018-09-25T01:37:46.560Z,52.7771
2018-09-25T01:38:46.602Z,52.55127
2018-09-25T01:39:46.656Z,52.34375
2018-09-25T01:40:46.860Z,52.34375
2018-09-25T01:41:46.823Z,52.55127
2018-09-25T01:42:46.829Z,52.246094
2018-09-25T01:43:46.853Z,52.34375
2018-09-25T01:44:47.042Z,52.67334
2018-09-25T01:45:47.022Z,52.7771
2018-09-25T01:46:47.045Z,52.880859
2018-09-25T01:47:48.132Z,52.575684
2018-09-25T01:48:47.150Z,52.7771
2018-09-25T01:49:47.172Z,53.009033
2018-09-25T01:50:47.236Z,53.082275
2018-09-25T01:51:47.390Z,52.880859
2018-09-25T01:52:47.312Z,52.905273
2018-09-25T01:53:47.472Z,52.984619
2018-09-25T01:54:47.557Z,53.009033
2018-09-25T01:55:47.796Z,53.082275
2018-09-25T01:56:47.706Z,52.984619
2018-09-25T01:57:47.741Z,52.984619
2018-09-25T01:58:47.794Z,52.7771
2018-09-25T01:59:47.912Z,53.106689
2018-09-25T02:00:48.065Z,53.210449
2018-09-25T02:01:48.222Z,52.880859
2018-09-25T02:02:48.328Z,52.880859
2018-09-25T02:03:48.398Z,52.880859
2018-09-25T02:04:48.409Z,52.67334
2018-09-25T02:05:48.601Z,52.55127
2018-09-25T02:06:48.679Z,52.67334
2018-09-25T02:07:48.767Z,52.7771
2018-09-25T02:08:48.898Z,52.880859
2018-09-25T02:09:48.896Z,52.7771
2018-09-25T02:10:49.005Z,52.7771
2018-09-25T02:11:49.148Z,52.984619
2018-09-25T02:12:49.299Z,53.186035
2018-09-25T02:13:49.307Z,53.289795
2018-09-25T02:14:49.407Z,52.880859
2018-09-25T02:15:49.528Z,52.984619
2018-09-25T02:16:49.551Z,52.7771
2018-09-25T02:17:49.680Z,52.880859
2018-09-25T02:18:49.756Z,52.984619
2018-09-25T02:19:49.840Z,52.7771
2018-09-25T02:20:49.844Z,52.7771
2018-09-25T02:21:49.955Z,52.7771
2018-09-25T02:22:49.976Z,52.880859
2018-09-25T02:23:50.104Z,52.984619
2018-09-25T02:24:50.145Z,52.984619
2018-09-25T02:25:50.188Z,53.289795
2018-09-25T02:26:50.288Z,53.082275
2018-09-25T02:27:50.407Z,52.984619
2018-09-25T02:28:50.446Z,52.856445
2018-09-25T02:29:50.573Z,52.984619
2018-09-25T02:30:50.565Z,52.984619
2018-09-25T02:31:50.641Z,53.186035
2018-09-25T02:32:50.751Z,53.186035
2018-09-25T02:33:50.755Z,53.417969
2018-09-25T02:34:50.913Z,53.619385
2018-09-25T02:35:50.880Z,53.826904
2018-09-25T02:36:50.942Z,54.260254
2018-09-25T02:37:51.068Z,54.156494
2018-09-25T02:38:51.234Z,54.260254
2018-09-25T02:39:51.166Z,54.052734
2018-09-25T02:40:51.323Z,54.260254
2018-09-25T02:41:51.448Z,54.02832
2018-09-25T02:42:51.774Z,54.156494
2018-09-25T02:43:51.700Z,54.02832
2018-09-25T02:44:51.857Z,53.924561
2018-09-25T02:45:51.915Z,53.924561
2018-09-25T02:46:51.998Z,54.02832
2018-09-25T02:47:52.067Z,54.260254
2018-09-25T02:48:52.178Z,54.35791
2018-09-25T02:49:52.280Z,54.35791
2018-09-25T02:50:52.505Z,54.56543
2018-09-25T02:51:52.479Z,54.35791
2018-09-25T02:52:52.640Z,54.229736
2018-09-25T02:53:52.767Z,54.260254
2018-09-25T02:54:52.894Z,54.35791
2018-09-25T02:55:52.999Z,54.35791
2018-09-25T02:56:53.073Z,54.229736
2018-09-25T02:57:53.220Z,54.02832
2018-09-25T02:58:53.313Z,54.156494
2018-09-25T02:59:53.264Z,54.35791
2018-09-25T03:00:53.286Z,54.669189
2018-09-25T03:01:53.351Z,54.766846
2018-09-25T03:02:53.475Z,54.766846
2018-09-25T03:03:53.631Z,54.766846
2018-09-25T03:04:53.677Z,54.56543
2018-09-25T03:06:51.428Z,54.974365
2018-09-25T03:07:51.323Z,54.766846
2018-09-25T03:08:51.380Z,54.56543
2018-09-25T03:09:51.380Z,54.669189
2018-09-25T03:10:51.403Z,54.669189
2018-09-25T03:11:51.495Z,54.56543
2018-09-25T03:16:02.925Z,54.669189
2018-09-25T03:17:03.024Z,54.669189
2018-09-25T03:18:03.150Z,54.870605
2018-09-25T03:19:03.256Z,54.870605
2018-09-25T03:20:03.304Z,54.669189
2018-09-25T03:21:03.355Z,54.766846
2018-09-25T03:22:03.488Z,54.870605
2018-09-25T03:23:03.654Z,54.669189
2018-09-25T03:24:03.842Z,54.669189
2018-09-25T03:25:03.790Z,55.206299
2018-09-25T03:27:58.826Z,55.407715
2018-09-25T03:28:59.056Z,55.303955
2018-09-25T03:29:59.014Z,55.078125
2018-09-25T03:31:39.314Z,55.078125
2018-09-25T03:32:39.429Z,55.206299
2018-09-25T03:33:39.560Z,55.511475
2018-09-25T03:34:39.525Z,55.303955
2018-09-25T03:35:39.541Z,55.175781
2018-09-25T03:36:40.643Z,55.078125
2018-09-25T03:37:39.688Z,55.303955
2018-09-25T03:38:39.812Z,55.303955
2018-09-25T03:39:39.787Z,55.615234
2018-09-25T03:40:39.940Z,55.81665
2018-09-25T03:41:40.177Z,55.944824
2018-09-25T03:42:40.108Z,55.712891
2018-09-25T03:43:40.221Z,55.511475
2018-09-25T03:44:40.304Z,55.407715
2018-09-25T03:45:40.369Z,55.407715
2018-09-25T03:46:40.425Z,55.511475
2018-09-25T03:47:40.470Z,55.407715
2018-09-25T03:48:40.621Z,55.511475
2018-09-25T03:49:40.633Z,55.383301
2018-09-25T03:50:40.638Z,55.175781
2018-09-25T03:51:40.759Z,55.279541
2018-09-25T03:52:40.877Z,55.407715
2018-09-25T03:53:40.992Z,55.615234
2018-09-25T03:54:41.023Z,55.615234
2018-09-25T03:55:41.130Z,55.615234
2018-09-25T03:56:41.220Z,55.511475
2018-09-25T03:57:41.339Z,55.615234
2018-09-25T03:58:41.475Z,55.511475
2018-09-25T03:59:41.753Z,55.407715
2018-09-25T04:00:41.730Z,55.615234
2018-09-25T04:01:41.752Z,55.511475
2018-09-25T04:02:41.823Z,55.712891
2018-09-25T04:03:41.977Z,55.712891
2018-09-25T04:04:42.130Z,55.712891
2018-09-25T04:05:42.169Z,56.048584
2018-09-25T04:06:42.145Z,56.02417
2018-09-25T04:07:42.397Z,55.92041
2018-09-25T04:08:42.361Z,55.92041
2018-09-25T04:09:42.448Z,55.81665
2018-09-25T04:10:42.564Z,56.25
2018-09-25T04:11:42.709Z,56.658936
2018-09-25T04:12:42.648Z,56.762695
2018-09-25T04:13:42.684Z,56.35376
2018-09-25T04:14:42.746Z,56.225586
2018-09-25T04:15:42.857Z,56.121826
2018-09-25T04:16:42.923Z,56.02417
2018-09-25T04:17:42.936Z,55.81665
2018-09-25T04:18:42.957Z,56.02417
2018-09-25T04:19:43.099Z,55.92041
2018-09-25T04:20:43.262Z,55.92041
2018-09-25T04:21:43.144Z,56.02417
2018-09-25T04:22:43.277Z,56.02417
2018-09-25T04:23:43.398Z,56.225586
2018-09-25T04:24:43.513Z,56.225586
2018-09-25T04:25:43.522Z,56.121826
2018-09-25T04:26:43.633Z,56.121826
2018-09-25T04:27:43.753Z,56.329346
2018-09-25T04:28:43.806Z,56.121826
2018-09-25T04:29:43.919Z,56.225586
2018-09-25T04:30:44.169Z,56.121826
2018-09-25T04:31:44.127Z,55.92041
2018-09-25T04:32:44.115Z,56.02417
2018-09-25T04:33:44.245Z,56.329346
2018-09-25T04:34:44.382Z,56.225586
2018-09-25T04:35:44.531Z,56.45752
2018-09-25T04:36:44.469Z,56.35376
2018-09-25T04:37:44.482Z,56.561279
2018-09-25T04:38:44.595Z,56.561279
2018-09-25T04:39:44.712Z,56.561279
2018-09-25T04:40:44.765Z,56.866455
2018-09-25T04:41:44.841Z,56.970215
2018-09-25T04:42:45.027Z,56.866455
2018-09-25T04:43:45.056Z,56.762695
2018-09-25T04:44:45.117Z,56.866455
2018-09-25T04:45:45.238Z,56.970215
2018-09-25T04:46:45.438Z,56.970215
2018-09-25T04:47:45.485Z,56.970215
2018-09-25T04:48:45.497Z,56.970215
2018-09-25T04:49:48.342Z,57.171631
2018-09-25T04:50:45.684Z,57.171631
2018-09-25T04:51:45.576Z,57.171631
2018-09-25T04:52:45.628Z,57.507324
2018-09-25T04:53:45.706Z,57.91626
2018-09-25T04:54:45.691Z,57.91626
2018-09-25T04:55:45.710Z,57.611084
2018-09-25T04:56:45.849Z,57.37915
2018-09-25T04:57:46.128Z,57.171631
2018-09-25T04:58:46.103Z,57.275391
2018-09-25T04:59:46.205Z,57.403564
2018-09-25T05:00:46.301Z,57.611084
2018-09-25T05:01:46.375Z,57.70874
2018-09-25T05:02:46.477Z,57.611084
2018-09-25T05:03:46.633Z,57.91626
2018-09-25T05:04:46.666Z,58.02002
2018-09-25T05:05:46.707Z,58.02002
2018-09-25T05:06:46.909Z,58.148193
2018-09-25T05:07:47.046Z,58.02002
2018-09-25T05:08:46.892Z,58.02002
2018-09-25T05:09:46.927Z,57.91626
2018-09-25T05:10:47.026Z,58.117676
2018-09-25T05:11:47.007Z,57.788086
2018-09-25T05:12:47.145Z,57.580566
2018-09-25T05:13:47.247Z,57.476807
2018-09-25T05:14:47.406Z,57.8125
2018-09-25T05:15:47.453Z,58.02002
2018-09-25T05:16:47.535Z,58.02002
2018-09-25T05:17:47.671Z,57.885742
2018-09-25T05:18:47.593Z,57.684326
2018-09-25T05:19:47.710Z,57.684326
2018-09-25T05:20:47.813Z,58.117676
2018-09-25T05:21:47.877Z,58.117676
2018-09-25T05:22:48.007Z,57.885742
2018-09-25T05:23:48.078Z,57.788086
2018-09-25T05:24:48.127Z,57.684326
2018-09-25T05:25:48.265Z,57.91626
2018-09-25T05:26:48.307Z,58.02002
2018-09-25T05:27:48.404Z,58.117676
2018-09-25T05:28:48.604Z,57.885742
2018-09-25T05:29:48.724Z,58.02002
2018-09-25T05:30:48.773Z,58.117676
2018-09-25T05:31:48.935Z,58.526611
2018-09-25T05:32:48.849Z,58.428955
2018-09-25T05:33:49.123Z,58.221436
2018-09-25T05:35:45.930Z,58.221436
2018-09-25T05:36:45.886Z,57.989502
2018-09-25T05:37:46.956Z,57.788086
2018-09-25T05:38:46.217Z,58.325195
2018-09-25T05:40:43.007Z,58.526611
2018-09-25T05:41:43.140Z,58.734131
2018-09-25T05:42:43.251Z,58.734131
2018-09-25T05:43:43.351Z,58.734131
2018-09-25T05:45:22.674Z,58.862305
2018-09-25T05:46:22.818Z,58.526611
2018-09-25T05:47:22.845Z,58.428955
2018-09-25T05:48:23.022Z,58.294678
2018-09-25T05:50:46.254Z,58.630371
2018-09-25T05:51:46.312Z,58.526611
2018-09-25T05:53:26.339Z,58.526611
2018-09-25T05:55:25.435Z,58.734131
2018-09-25T06:04:21.151Z,58.94165
2018-09-25T06:05:03.355Z,59.014893
2018-09-25T06:06:03.458Z,58.605957
2018-09-25T06:07:03.607Z,58.807373
2018-09-25T06:08:03.756Z,58.94165
2018-09-25T06:09:03.655Z,58.807373
2018-09-25T06:10:03.803Z,58.703613
2018-09-25T06:11:03.891Z,58.703613
2018-09-25T06:12:03.966Z,58.911133
2018-09-25T06:13:03.985Z,59.118652
2018-09-25T06:14:04.070Z,58.911133
2018-09-25T06:15:04.109Z,58.807373
2018-09-25T06:16:04.129Z,58.807373
2018-09-25T06:17:04.389Z,58.807373
2018-09-25T06:18:04.344Z,58.807373
2018-09-25T06:19:04.413Z,58.911133
2018-09-25T06:20:04.518Z,58.703613
2018-09-25T06:21:04.671Z,58.703613
2018-09-25T06:22:04.693Z,59.216309
2018-09-25T06:23:04.842Z,59.118652
2018-09-25T06:24:04.782Z,59.118652
2018-09-25T06:25:04.857Z,58.782959
2018-09-25T06:26:04.825Z,58.886719
2018-09-25T06:27:04.901Z,59.216309
2018-09-25T06:28:05.050Z,58.984375
2018-09-25T06:29:04.999Z,58.984375
2018-09-25T06:30:05.103Z,58.782959
2018-09-25T06:31:05.191Z,58.782959
2018-09-25T06:32:05.305Z,58.782959
2018-09-25T06:33:05.392Z,59.216309
2018-09-25T06:34:05.430Z,59.088135
2018-09-25T06:35:05.543Z,58.984375
2018-09-25T06:36:05.571Z,58.886719
2018-09-25T06:37:05.689Z,59.088135
2018-09-25T06:38:05.719Z,59.295654
2018-09-25T06:39:05.758Z,59.088135
2018-09-25T06:40:05.852Z,59.088135
2018-09-25T06:41:05.874Z,59.088135
2018-09-25T06:42:05.951Z,58.984375
2018-09-25T06:43:05.981Z,58.886719
2018-09-25T06:44:06.055Z,59.088135
2018-09-25T06:45:06.132Z,59.295654
2018-09-25T06:46:06.336Z,59.393311
2018-09-25T06:47:06.294Z,59.49707
2018-09-25T06:48:06.349Z,59.49707
2018-09-25T06:49:06.449Z,59.393311
2018-09-25T06:50:06.732Z,59.295654
2018-09-25T06:51:06.649Z,59.088135
2018-09-25T06:52:06.666Z,59.088135
2018-09-25T06:53:06.674Z,59.295654
2018-09-25T06:54:06.716Z,59.265137
2018-09-25T06:55:06.836Z,59.466553
2018-09-25T06:56:06.854Z,59.161377
2018-09-25T06:57:06.960Z,59.161377
2018-09-25T06:58:06.964Z,59.161377
2018-09-25T06:59:06.984Z,59.161377
2018-09-25T07:00:07.070Z,58.959961
2018-09-25T07:01:07.297Z,59.265137
2018-09-25T07:02:07.180Z,59.057617
2018-09-25T07:03:07.203Z,58.959961
2018-09-25T07:04:07.309Z,59.057617
2018-09-25T07:05:07.447Z,58.929443
2018-09-25T07:06:07.482Z,58.624268
2018-09-25T07:07:07.475Z,58.856201
2018-09-25T07:08:07.561Z,59.265137
2018-09-25T07:09:07.603Z,59.161377
2018-09-25T07:10:08.009Z,59.057617
2018-09-25T07:11:07.907Z,59.265137
2018-09-25T07:12:07.938Z,59.368896
2018-09-25T07:13:07.981Z,59.265137
2018-09-25T07:14:08.104Z,59.466553
2018-09-25T07:15:08.183Z,59.234619
2018-09-25T07:16:08.339Z,59.136963
2018-09-25T07:17:08.401Z,59.234619
2018-09-25T07:18:08.405Z,59.545898
2018-09-25T07:19:08.459Z,59.674072
2018-09-25T07:20:08.438Z,59.442139
2018-09-25T07:21:08.675Z,59.234619
2018-09-25T07:22:08.754Z,59.136963
2018-09-25T07:23:08.836Z,59.002686
2018-09-25T07:24:08.907Z,58.69751
2018-09-25T07:25:09.075Z,58.69751
2018-09-25T07:26:09.109Z,59.033203
2018-09-25T07:27:09.093Z,59.234619
2018-09-25T07:28:09.211Z,59.234619
2018-09-25T07:29:09.317Z,59.002686
2018-09-25T07:30:09.397Z,59.002686
2018-09-25T07:31:09.474Z,59.313965
2018-09-25T07:32:09.502Z,59.002686
2018-09-25T07:33:09.573Z,58.905029
2018-09-25T07:34:09.639Z,59.002686
2018-09-25T07:35:09.679Z,58.80127
2018-09-25T07:36:09.910Z,58.80127
2018-09-25T07:37:09.847Z,58.905029
2018-09-25T07:38:10.016Z,58.69751
2018-09-25T07:39:10.029Z,58.673096
2018-09-25T07:40:10.251Z,58.874512
2018-09-25T07:41:10.354Z,59.106445
2018-09-25T07:42:10.379Z,58.978271
2018-09-25T07:43:10.491Z,58.874512
2018-09-25T07:44:10.714Z,58.776855
2018-09-25T07:45:10.674Z,58.465576
2018-09-25T07:46:10.755Z,58.337402
2018-09-25T07:47:10.798Z,58.135986
2018-09-25T07:48:11.075Z,58.135986
2018-09-25T07:49:11.086Z,58.233643
2018-09-25T07:50:11.138Z,58.135986
2018-09-25T07:51:11.282Z,57.696533
2018-09-25T07:52:11.237Z,57.598877
2018-09-25T07:53:11.266Z,57.598877
2018-09-25T07:54:11.309Z,57.470703
2018-09-25T07:55:11.489Z,57.061768
2018-09-25T07:56:11.509Z,57.061768
2018-09-25T07:57:11.564Z,56.958008
2018-09-25T07:58:11.647Z,56.829834
2018-09-25T07:59:11.803Z,56.829834
2018-09-25T08:00:11.934Z,56.420898
2018-09-25T08:01:11.953Z,56.524658
2018-09-25T08:02:12.006Z,56.628418
2018-09-25T08:03:12.286Z,56.628418
2018-09-25T08:04:12.206Z,56.829834
2018-09-25T08:05:12.364Z,56.524658
2018-09-25T08:06:12.284Z,56.933594
2018-09-25T08:07:12.502Z,57.23877
2018-09-25T08:08:12.503Z,57.110596
2018-09-25T08:09:12.641Z,57.006836
2018-09-25T08:10:12.666Z,56.396484
2018-09-25T08:11:12.763Z,56.5979
2018-09-25T08:12:12.940Z,56.5979
2018-09-25T08:13:12.883Z,56.396484
2018-09-25T08:14:12.957Z,56.500244
2018-09-25T08:15:13.154Z,57.110596
2018-09-25T08:16:14.256Z,56.903076
2018-09-25T08:17:13.287Z,57.006836
2018-09-25T08:18:13.267Z,56.70166
2018-09-25T08:19:13.373Z,56.573486
2018-09-25T08:20:13.678Z,56.500244
2018-09-25T08:21:13.613Z,56.70166
2018-09-25T08:22:13.641Z,56.573486
2018-09-25T08:23:13.787Z,56.573486
2018-09-25T08:24:13.871Z,56.774902
2018-09-25T08:25:14.021Z,56.878662
2018-09-25T08:26:14.051Z,56.677246
2018-09-25T08:27:14.144Z,56.573486
2018-09-25T08:28:14.245Z,56.878662
2018-09-25T08:29:14.235Z,56.951904
2018-09-25T08:30:14.243Z,56.951904
2018-09-25T08:31:14.335Z,55.731201
2018-09-25T08:32:14.440Z,56.036377
2018-09-25T08:33:14.410Z,56.140137
2018-09-25T08:34:14.441Z,56.341553
2018-09-25T08:35:14.530Z,55.731201
2018-09-25T08:36:14.536Z,55.529785
2018-09-25T08:37:14.540Z,55.529785
2018-09-25T08:38:14.877Z,55.224609
2018-09-25T08:39:14.898Z,55.529785
2018-09-25T08:40:14.884Z,55.529785
2018-09-25T08:41:14.888Z,55.426025
2018-09-25T08:42:15.079Z,55.328369
2018-09-25T08:43:15.087Z,55.303955
2018-09-25T08:44:15.156Z,55.200195
2018-09-25T08:45:15.311Z,55.200195
2018-09-25T08:46:15.557Z,55.200195
2018-09-25T08:47:15.482Z,55.175781
2018-09-25T08:48:15.665Z,54.89502
2018-09-25T08:49:15.689Z,54.388428
2018-09-25T08:50:15.842Z,54.486084
2018-09-25T08:51:15.891Z,54.56543
2018-09-25T08:52:15.912Z,54.56543
2018-09-25T08:53:16.037Z,54.260254
2018-09-25T08:54:16.024Z,54.35791
2018-09-25T08:55:16.113Z,54.156494
2018-09-25T08:56:16.149Z,54.23584
2018-09-25T08:57:16.425Z,54.541016
2018-09-25T08:58:16.387Z,54.13208
2018-09-25T08:59:16.427Z,53.930664
2018-09-25T09:00:16.546Z,53.826904
2018-09-25T09:01:16.710Z,53.295898
2018-09-25T09:02:16.807Z,53.625488
2018-09-25T09:03:16.987Z,53.601074
2018-09-25T09:04:17.007Z,53.497314
2018-09-25T09:05:16.975Z,53.192139
2018-09-25T09:06:16.997Z,52.484131
2018-09-25T09:07:17.270Z,52.484131
2018-09-25T09:08:17.345Z,52.301025
2018-09-25T09:09:17.271Z,52.508545
2018-09-25T09:10:17.413Z,52.301025
2018-09-25T09:11:17.425Z,52.404785
2018-09-25T09:12:17.415Z,52.075195
2018-09-25T09:13:17.528Z,52.203369
2018-09-25T09:14:17.725Z,51.794434
2018-09-25T09:15:17.621Z,52.178955
2018-09-25T09:16:17.620Z,51.873779
2018-09-25T09:17:17.666Z,51.672363
2018-09-25T09:18:17.731Z,52.075195
2018-09-25T09:19:17.818Z,51.953125
2018-09-25T09:20:17.952Z,51.745605
2018-09-25T09:21:18.087Z,51.849365
2018-09-25T09:22:18.157Z,51.849365
2018-09-25T09:23:18.174Z,51.647949
2018-09-25T09:24:18.349Z,51.44043
2018-09-25T09:25:18.587Z,51.928711
2018-09-25T09:26:18.504Z,51.519775
2018-09-25T09:27:18.627Z,51.318359
2018-09-25T09:28:18.619Z,51.2146
2018-09-25T09:29:18.850Z,51.721191
2018-09-25T09:30:18.765Z,50.305176
2018-09-25T09:31:18.800Z,49.493408
2018-09-25T09:32:18.872Z,49.493408
2018-09-25T09:33:18.822Z,49.084473
2018-09-25T09:34:18.824Z,48.779297
2018-09-25T09:35:18.978Z,48.883057
2018-09-25T09:36:19.116Z,49.188232
2018-09-25T09:37:19.093Z,49.365234
2018-09-25T09:38:19.090Z,49.060059
2018-09-25T09:39:19.233Z,49.468994
2018-09-25T09:40:19.267Z,49.54834
2018-09-25T09:41:19.457Z,48.834229
2018-09-25T09:42:19.435Z,48.834229
2018-09-25T09:43:19.632Z,49.041748
2018-09-25T09:44:19.638Z,49.243164
2018-09-25T09:45:19.704Z,49.163818
2018-09-25T09:46:20.709Z,49.243164
2018-09-25T09:47:19.809Z,49.243164
2018-09-25T09:48:19.769Z,49.041748
2018-09-25T09:50:16.347Z,49.041748
2018-09-25T09:51:16.423Z,48.406982
2018-09-25T09:52:16.405Z,48.10791
2018-09-25T09:53:16.602Z,48.406982
2018-09-25T09:54:16.593Z,48.712158
2018-09-25T09:55:16.765Z,47.802734
2018-09-25T09:56:16.761Z,48.00415
2018-09-25T09:57:16.945Z,48.309326
2018-09-25T10:18:34.118Z,45.507812
2018-09-25T10:19:34.265Z,45.812988
2018-09-25T10:20:34.376Z,45.10498
2018-09-25T10:21:34.393Z,45.410156
2018-09-25T10:22:34.442Z,45.507812
2018-09-25T10:23:34.517Z,45.507812
2018-09-25T10:24:34.553Z,44.903564
2018-09-25T10:25:34.690Z,44.903564
2018-09-25T10:26:34.740Z,44.702148
2018-09-25T10:27:35.021Z,44.091797
2018-09-25T10:28:35.032Z,44.195557
2018-09-25T10:29:35.195Z,44.372559
2018-09-25T10:30:35.163Z,44.372559
2018-09-25T10:31:35.203Z,44.580078
2018-09-25T10:32:35.401Z,44.87915
2018-09-25T10:33:35.391Z,44.677734
2018-09-25T10:34:35.577Z,44.781494
2018-09-25T10:35:35.647Z,44.476318
2018-09-25T10:36:35.640Z,44.372559
2018-09-25T10:37:36.683Z,44.476318
2018-09-25T10:38:35.871Z,43.969727
2018-09-25T10:39:35.908Z,43.670654
2018-09-25T10:40:36.064Z,42.755127
2018-09-25T10:41:36.205Z,42.254639
2018-09-25T10:42:36.247Z,43.060303
2018-09-25T10:43:36.313Z,43.243408
2018-09-25T10:44:36.352Z,43.139648
2018-09-25T10:45:36.413Z,43.121338
2018-09-25T10:46:36.431Z,42.718506
2018-09-25T10:47:36.464Z,42.63916
2018-09-25T10:48:36.668Z,46.356201
2018-09-25T10:49:36.629Z,45.343018
2018-09-25T10:50:36.653Z,43.225098
2018-09-25T10:51:36.665Z,42.596436
2018-09-25T10:52:36.817Z,42.089844
2018-09-25T10:53:36.854Z,42.29126
2018-09-25T10:54:36.931Z,41.18042
2018-09-25T10:55:36.932Z,41.589355
2018-09-25T10:56:37.121Z,41.790771
2018-09-25T10:57:37.093Z,42.315674
2018-09-25T10:58:37.208Z,42.29126
2018-09-25T10:59:37.331Z,41.992188
2018-09-25T11:00:37.429Z,42.39502
2018-09-25T11:01:37.411Z,41.387939
2018-09-25T11:02:37.480Z,41.485596
2018-09-25T11:03:37.469Z,40.777588
2018-09-25T11:04:37.508Z,41.30249
2018-09-25T11:05:37.644Z,41.705322
2018-09-25T11:06:37.676Z,41.888428
2018-09-25T11:07:37.826Z,42.089844
2018-09-25T11:08:37.799Z,41.888428
2018-09-25T11:09:37.896Z,42.089844
2018-09-25T11:10:37.944Z,41.387939
2018-09-25T11:11:38.175Z,41.870117
2018-09-25T11:12:38.208Z,41.790771
2018-09-25T11:13:38.428Z,41.870117
2018-09-25T11:14:38.419Z,41.564941
2018-09-25T11:15:38.489Z,41.363525
2018-09-25T11:16:38.511Z,42.254639
2018-09-25T11:19:19.014Z,41.650391
2018-09-25T11:19:52.885Z,42.071533
2018-09-25T11:20:52.920Z,42.474365
2018-09-25T11:21:52.993Z,42.254639
2018-09-25T11:47:53.135Z,42.211914
2018-09-25T11:48:53.216Z,42.114258
2018-09-25T11:49:53.436Z,43.218994
2018-09-25T11:50:53.352Z,42.614746
2018-09-25T11:51:53.485Z,42.297363
2018-09-25T11:52:53.627Z,41.992188
2018-09-25T11:53:53.521Z,42.901611
2018-09-25T11:54:53.639Z,41.491699
2018-09-25T11:55:53.846Z,40.783691
2018-09-25T11:56:53.961Z,42.901611
2018-09-25T11:57:53.992Z,40.081787
2018-09-25T11:58:53.973Z,41.088867
2018-09-25T11:59:54.259Z,41.369629
2018-09-25T12:00:54.247Z,40.161133
2018-09-25T12:01:54.366Z,40.966797
2018-09-25T12:02:54.462Z,39.855957
2018-09-25T12:03:54.740Z,40.966797
2018-09-25T12:04:54.720Z,39.453125
2018-09-25T12:05:54.730Z,40.362549
2018-09-25T12:06:54.909Z,38.250732
2018-09-25T12:07:54.899Z,38.653564
2018-09-25T12:08:54.905Z,38.250732
2018-09-25T12:09:55.024Z,37.744141
2018-09-25T12:10:55.151Z,36.553955
2018-09-25T12:11:55.212Z,37.060547
2018-09-25T12:12:55.117Z,37.445068
2018-09-25T12:13:55.231Z,37.341309
2018-09-25T12:14:55.522Z,37.445068
2018-09-25T12:15:55.500Z,38.031006
2018-09-25T12:16:55.697Z,37.628174
2018-09-25T12:17:55.728Z,37.628174
2018-09-25T12:18:55.705Z,37.524414
2018-09-25T12:19:55.874Z,37.506104
2018-09-25T12:20:55.842Z,37.609863
2018-09-25T12:21:56.079Z,36.303711
2018-09-25T12:22:56.113Z,36.517334
2018-09-25T12:23:56.235Z,36.71875
2018-09-25T12:24:56.280Z,36.218262
2018-09-25T12:25:56.329Z,36.114502
2018-09-25T12:26:56.323Z,35.81543
2018-09-25T12:27:56.470Z,35.913086
2018-09-25T12:28:56.453Z,35.614014
2018-09-25T12:29:56.493Z,36.102295
2018-09-25T12:30:56.499Z,35.882568
2018-09-25T12:31:56.610Z,36.2854
2018-09-25T12:32:56.763Z,37.304688
2018-09-25T12:33:56.769Z,37.506104
2018-09-25T12:34:56.861Z,36.499023
2018-09-25T12:35:56.728Z,35.797119
2018-09-25T12:36:56.778Z,35.498047